createdAt,value
2023-05-15T00:00:04.824Z,10.46
2023-05-15T00:01:05.177Z,10.42
2023-05-15T00:02:05.644Z,10.42
2023-05-15T00:03:05.977Z,10.41
2023-05-15T00:04:06.310Z,10.41
2023-05-15T00:05:06.762Z,10.42
2023-05-15T00:06:07.010Z,10.38
2023-05-15T00:07:07.370Z,10.38
2023-05-15T00:08:07.706Z,10.38
2023-05-15T00:09:08.055Z,10.38
2023-05-15T00:10:08.428Z,10.37
2023-05-15T00:11:08.815Z,10.38
2023-05-15T00:12:09.143Z,10.40
2023-05-15T00:13:09.548Z,10.38
2023-05-15T00:14:09.882Z,10.38
2023-05-15T00:15:10.231Z,10.38
2023-05-15T00:16:10.669Z,10.38
2023-05-15T00:17:10.965Z,10.35
2023-05-15T00:18:11.438Z,10.34
2023-05-15T00:19:11.740Z,10.34
2023-05-15T00:20:12.009Z,10.35
2023-05-15T00:21:12.460Z,10.35
2023-05-15T00:22:12.725Z,10.35
2023-05-15T00:23:13.115Z,10.33
2023-05-15T00:24:13.477Z,10.30
2023-05-15T00:25:13.782Z,10.26
2023-05-15T00:26:14.149Z,10.23
2023-05-15T00:27:14.566Z,10.20
2023-05-15T00:28:14.894Z,10.19
2023-05-15T00:29:15.263Z,10.19
2023-05-15T00:30:15.597Z,10.15
2023-05-15T00:31:15.972Z,10.15
2023-05-15T00:32:16.303Z,10.13
2023-05-15T00:33:16.758Z,10.12
2023-05-15T00:34:17.035Z,10.12
2023-05-15T00:35:17.403Z,10.12
2023-05-15T00:36:17.790Z,10.09
2023-05-15T00:37:18.213Z,10.05
2023-05-15T00:38:18.528Z,10.04
2023-05-15T00:39:18.834Z,10.02
2023-05-15T00:40:19.398Z,10.01
2023-05-15T00:41:19.570Z,10.02
2023-05-15T00:42:19.943Z,10.01
2023-05-15T00:43:20.422Z,9.99
2023-05-15T00:44:20.662Z,9.99
2023-05-15T00:45:21.032Z,9.99
2023-05-15T00:46:21.449Z,10.01
2023-05-15T00:47:21.757Z,10.01
2023-05-15T00:48:22.124Z,10.04
2023-05-15T00:49:22.455Z,10.05
2023-05-15T00:50:22.873Z,10.07
2023-05-15T00:51:23.199Z,10.07
2023-05-15T00:52:23.572Z,10.05
2023-05-15T00:53:23.939Z,10.02
2023-05-15T00:54:24.306Z,9.98
2023-05-15T00:55:24.921Z,9.97
2023-05-15T00:56:25.039Z,9.95
2023-05-15T00:57:25.431Z,9.94
2023-05-15T00:58:25.808Z,9.91
2023-05-15T00:59:26.095Z,9.87
2023-05-15T01:00:26.449Z,9.84
2023-05-15T01:01:26.894Z,9.80
2023-05-15T01:02:27.236Z,9.73
2023-05-15T01:03:27.586Z,9.68
2023-05-15T01:04:27.868Z,9.68
2023-05-15T01:05:28.240Z,9.61
2023-05-15T01:06:28.552Z,9.55
2023-05-15T01:07:28.908Z,9.50
2023-05-15T01:08:29.301Z,9.44
2023-05-15T01:09:29.633Z,9.41
2023-05-15T01:10:29.970Z,9.41
2023-05-15T01:11:30.312Z,9.39
2023-05-15T01:12:30.680Z,9.39
2023-05-15T01:13:31.103Z,9.37
2023-05-15T01:14:31.360Z,9.39
2023-05-15T01:15:31.731Z,9.40
2023-05-15T01:16:32.040Z,9.39
2023-05-15T01:17:32.426Z,9.39
2023-05-15T01:18:32.895Z,9.37
2023-05-15T01:19:33.232Z,9.39
2023-05-15T01:20:33.434Z,9.36
2023-05-15T01:21:33.796Z,9.36
2023-05-15T01:22:34.173Z,9.32
2023-05-15T01:23:34.581Z,9.34
2023-05-15T01:24:34.889Z,9.36
2023-05-15T01:25:35.208Z,9.43
2023-05-15T01:26:35.587Z,9.48
2023-05-15T01:27:35.898Z,9.50
2023-05-15T01:28:36.246Z,9.48
2023-05-15T01:29:36.597Z,9.48
2023-05-15T01:30:36.958Z,9.48
2023-05-15T01:31:37.348Z,9.51
2023-05-15T01:32:37.703Z,9.48
2023-05-15T01:33:38.077Z,9.51
2023-05-15T01:34:38.492Z,9.58
2023-05-15T01:35:38.742Z,9.62
2023-05-15T01:36:39.101Z,9.62
2023-05-15T01:37:39.469Z,9.61
2023-05-15T01:38:39.840Z,9.62
2023-05-15T01:39:40.159Z,9.62
2023-05-15T01:40:40.516Z,9.62
2023-05-15T01:41:40.851Z,9.61
2023-05-15T01:42:41.281Z,9.62
2023-05-15T01:43:41.571Z,9.62
2023-05-15T01:44:41.956Z,9.62
2023-05-15T01:45:42.213Z,9.62
2023-05-15T01:46:42.677Z,9.62
2023-05-15T01:47:42.942Z,9.62
2023-05-15T01:48:43.320Z,9.56
2023-05-15T01:49:43.643Z,9.55
2023-05-15T01:50:44.022Z,9.54
2023-05-15T01:51:44.336Z,9.56
2023-05-15T01:52:44.693Z,9.58
2023-05-15T01:53:45.115Z,9.61
2023-05-15T01:54:45.406Z,9.65
2023-05-15T01:55:45.737Z,9.61
2023-05-15T01:56:46.099Z,9.59
2023-05-15T01:57:46.432Z,9.62
2023-05-15T01:58:46.884Z,9.51
2023-05-15T01:59:47.118Z,9.39
2023-05-15T02:00:47.496Z,9.28
2023-05-15T02:01:47.961Z,9.21
2023-05-15T02:02:48.232Z,9.19
2023-05-15T02:03:48.575Z,9.13
2023-05-15T02:04:48.858Z,9.08
2023-05-15T02:05:49.244Z,9.04
2023-05-15T02:06:49.558Z,9.06
2023-05-15T02:07:49.947Z,9.02
2023-05-15T02:08:50.279Z,9.03
2023-05-15T02:09:50.631Z,9.04
2023-05-15T02:10:50.937Z,9.06
2023-05-15T02:11:51.315Z,9.08
2023-05-15T02:12:51.647Z,9.10
2023-05-15T02:13:52.009Z,9.08
2023-05-15T02:14:52.326Z,9.06
2023-05-15T02:15:52.716Z,9.08
2023-05-15T02:16:53.087Z,9.21
2023-05-15T02:17:53.466Z,9.25
2023-05-15T02:18:53.787Z,9.31
2023-05-15T02:19:54.105Z,9.39
2023-05-15T02:20:54.472Z,9.44
2023-05-15T02:21:54.837Z,9.46
2023-05-15T02:22:55.169Z,9.48
2023-05-15T02:23:55.559Z,9.43
2023-05-15T02:24:55.896Z,9.37
2023-05-15T02:25:56.288Z,9.34
2023-05-15T02:26:56.568Z,9.26
2023-05-15T02:27:56.939Z,9.21
2023-05-15T02:28:57.310Z,9.16
2023-05-15T02:29:57.607Z,9.14
2023-05-15T02:30:57.952Z,9.14
2023-05-15T02:31:58.354Z,9.18
2023-05-15T02:33:04.691Z,9.16
2023-05-15T02:33:59.032Z,9.18
2023-05-15T02:34:59.384Z,9.19
2023-05-15T02:35:59.754Z,9.21
2023-05-15T02:37:00.154Z,9.14
2023-05-15T02:38:00.492Z,9.08
2023-05-15T02:39:00.873Z,9.00
2023-05-15T02:40:01.224Z,8.91
2023-05-15T02:41:01.414Z,8.85
2023-05-15T02:42:01.709Z,8.78
2023-05-15T02:43:01.999Z,8.73
2023-05-15T02:44:02.287Z,8.73
2023-05-15T02:45:02.558Z,8.73
2023-05-15T02:46:02.864Z,8.71
2023-05-15T02:47:03.152Z,8.74
2023-05-15T02:48:03.467Z,8.76
2023-05-15T02:49:03.728Z,8.82
2023-05-15T02:50:04.007Z,8.87
2023-05-15T02:51:04.295Z,8.88
2023-05-15T02:52:04.577Z,8.85
2023-05-15T02:53:04.863Z,8.85
2023-05-15T02:54:05.226Z,8.87
2023-05-15T02:55:05.448Z,8.87
2023-05-15T02:56:05.743Z,8.87
2023-05-15T02:57:06.043Z,8.88
2023-05-15T02:58:06.331Z,8.85
2023-05-15T02:59:06.681Z,8.84
2023-05-15T03:00:06.859Z,8.81
2023-05-15T03:01:07.013Z,8.78
2023-05-15T03:02:07.258Z,8.73
2023-05-15T03:03:07.556Z,8.70
2023-05-15T03:04:07.883Z,8.69
2023-05-15T03:05:08.120Z,8.66
2023-05-15T03:06:08.391Z,8.66
2023-05-15T03:07:08.920Z,8.66
2023-05-15T03:08:08.944Z,8.64
2023-05-15T03:09:09.131Z,8.64
2023-05-15T03:10:09.516Z,8.64
2023-05-15T03:11:09.674Z,8.61
2023-05-15T03:12:09.999Z,8.60
2023-05-15T03:13:10.247Z,8.55
2023-05-15T03:14:10.482Z,8.56
2023-05-15T03:15:10.713Z,8.53
2023-05-15T03:16:10.982Z,8.49
2023-05-15T03:17:11.336Z,8.48
2023-05-15T03:18:11.626Z,8.45
2023-05-15T03:19:11.807Z,8.44
2023-05-15T03:20:12.025Z,8.42
2023-05-15T03:21:12.312Z,8.41
2023-05-15T03:22:12.607Z,8.38
2023-05-15T03:23:12.751Z,8.38
2023-05-15T03:24:12.942Z,8.38
2023-05-15T03:25:13.241Z,8.41
2023-05-15T03:26:13.503Z,8.44
2023-05-15T03:27:13.671Z,8.45
2023-05-15T03:28:13.843Z,8.44
2023-05-15T03:29:14.151Z,8.41
2023-05-15T03:30:14.325Z,8.37
2023-05-15T03:31:14.583Z,8.36
2023-05-15T03:32:14.640Z,8.37
2023-05-15T03:33:14.845Z,8.38
2023-05-15T03:34:15.010Z,8.37
2023-05-15T03:35:15.175Z,8.38
2023-05-15T03:36:15.348Z,8.38
2023-05-15T03:37:15.532Z,8.36
2023-05-15T03:38:15.689Z,8.34
2023-05-15T03:39:15.887Z,8.33
2023-05-15T03:40:16.143Z,8.31
2023-05-15T03:41:16.322Z,8.30
2023-05-15T03:42:16.482Z,8.28
2023-05-15T03:43:16.669Z,8.31
2023-05-15T03:44:16.895Z,8.33
2023-05-15T03:45:17.012Z,8.33
2023-05-15T03:46:17.236Z,8.31
2023-05-15T03:47:17.336Z,8.31
2023-05-15T03:48:17.649Z,8.30
2023-05-15T03:49:17.840Z,8.30
2023-05-15T03:50:18.112Z,8.27
2023-05-15T03:51:18.277Z,8.27
2023-05-15T03:52:18.443Z,8.30
2023-05-15T03:53:18.633Z,8.31
2023-05-15T03:54:18.927Z,8.34
2023-05-15T03:55:19.209Z,8.36
2023-05-15T03:56:19.365Z,8.41
2023-05-15T03:57:19.543Z,8.38
2023-05-15T03:58:19.722Z,8.37
2023-05-15T03:59:19.940Z,8.37
2023-05-15T04:00:20.061Z,8.37
2023-05-15T04:01:20.253Z,8.38
2023-05-15T04:02:20.444Z,8.41
2023-05-15T04:03:20.902Z,8.33
2023-05-15T04:04:20.924Z,8.31
2023-05-15T04:05:21.104Z,8.28
2023-05-15T04:06:21.260Z,8.28
2023-05-15T04:07:21.442Z,8.34
2023-05-15T04:08:21.636Z,8.44
2023-05-15T04:09:21.873Z,8.55
2023-05-15T04:10:22.121Z,8.63
2023-05-15T04:11:22.254Z,8.71
2023-05-15T04:12:22.443Z,8.82
2023-05-15T04:13:22.627Z,8.92
2023-05-15T04:14:22.940Z,9.02
2023-05-15T04:15:23.340Z,9.11
2023-05-15T04:16:23.450Z,9.23
2023-05-15T04:17:23.632Z,9.37
2023-05-15T04:18:23.794Z,9.50
2023-05-15T04:19:24.094Z,9.61
2023-05-15T04:20:24.346Z,9.72
2023-05-15T04:21:24.447Z,9.79
2023-05-15T04:22:24.739Z,9.74
2023-05-15T04:23:25.054Z,9.76
2023-05-15T04:24:25.251Z,9.79
2023-05-15T04:25:25.800Z,9.76
2023-05-15T04:26:25.730Z,9.74
2023-05-15T04:27:26.011Z,9.77
2023-05-15T04:28:26.418Z,9.83
2023-05-15T04:29:26.521Z,9.92
2023-05-15T04:30:26.691Z,9.97
2023-05-15T04:31:26.905Z,10.09
2023-05-15T04:32:27.094Z,10.22
2023-05-15T04:33:27.292Z,10.30
2023-05-15T04:34:27.463Z,10.41
2023-05-15T04:35:27.759Z,10.51
2023-05-15T04:36:27.821Z,10.60
2023-05-15T04:37:28.017Z,10.63
2023-05-15T04:38:28.207Z,10.64
2023-05-15T04:39:28.407Z,10.69
2023-05-15T04:40:28.560Z,10.74
2023-05-15T04:41:28.740Z,10.75
2023-05-15T04:42:28.940Z,10.75
2023-05-15T04:43:29.128Z,10.78
2023-05-15T04:44:29.343Z,10.81
2023-05-15T04:45:29.545Z,10.86
2023-05-15T04:46:29.744Z,10.90
2023-05-15T04:47:29.909Z,10.96
2023-05-15T04:48:30.047Z,10.97
2023-05-15T04:49:30.245Z,10.97
2023-05-15T04:50:30.401Z,10.99
2023-05-15T04:51:30.589Z,10.97
2023-05-15T04:52:30.795Z,11.05
2023-05-15T04:53:30.978Z,11.07
2023-05-15T04:54:31.187Z,11.04
2023-05-15T04:55:31.785Z,11.10
2023-05-15T04:56:31.526Z,11.11
2023-05-15T04:57:31.716Z,11.12
2023-05-15T04:58:31.908Z,11.19
2023-05-15T04:59:32.138Z,11.19
2023-05-15T05:00:32.268Z,11.26
2023-05-15T05:01:32.545Z,11.37
2023-05-15T05:02:32.715Z,11.32
2023-05-15T05:03:32.881Z,11.29
2023-05-15T05:04:33.062Z,11.19
2023-05-15T05:05:33.214Z,11.18
2023-05-15T05:06:33.568Z,11.17
2023-05-15T05:07:33.608Z,11.27
2023-05-15T05:08:33.799Z,11.32
2023-05-15T05:09:34.020Z,11.41
2023-05-15T05:10:34.220Z,11.48
2023-05-15T05:11:34.376Z,11.55
2023-05-15T05:12:34.555Z,11.55
2023-05-15T05:13:34.750Z,11.63
2023-05-15T05:14:34.954Z,11.66
2023-05-15T05:15:35.139Z,11.69
2023-05-15T05:16:35.399Z,11.68
2023-05-15T05:17:35.579Z,11.68
2023-05-15T05:18:35.737Z,11.66
2023-05-15T05:19:35.940Z,11.59
2023-05-15T05:20:36.080Z,11.55
2023-05-15T05:21:36.296Z,11.65
2023-05-15T05:22:36.473Z,11.72
2023-05-15T05:23:36.631Z,11.80
2023-05-15T05:24:36.856Z,11.90
2023-05-15T05:25:37.043Z,12.02
2023-05-15T05:26:37.182Z,12.17
2023-05-15T05:27:37.333Z,12.25
2023-05-15T05:28:37.540Z,12.35
2023-05-15T05:29:37.701Z,12.29
2023-05-15T05:30:37.878Z,12.43
2023-05-15T05:31:38.143Z,12.53
2023-05-15T05:32:38.295Z,12.75
2023-05-15T05:33:38.507Z,12.95
2023-05-15T05:34:38.651Z,12.90
2023-05-15T05:35:38.810Z,12.95
2023-05-15T05:36:38.994Z,12.94
2023-05-15T05:37:41.310Z,13.03
2023-05-15T05:38:39.387Z,13.08
2023-05-15T05:39:39.595Z,13.11
2023-05-15T05:40:39.752Z,13.05
2023-05-15T05:41:39.932Z,13.11
2023-05-15T05:42:40.129Z,13.18
2023-05-15T05:43:40.339Z,13.20
2023-05-15T05:44:40.583Z,13.31
2023-05-15T05:45:40.696Z,13.35
2023-05-15T05:46:40.923Z,13.31
2023-05-15T05:47:41.104Z,13.30
2023-05-15T05:48:41.204Z,13.25
2023-05-15T05:49:41.407Z,13.49
2023-05-15T05:50:41.604Z,13.71
2023-05-15T05:51:41.809Z,13.90
2023-05-15T05:52:41.988Z,13.96
2023-05-15T05:53:42.184Z,14.10
2023-05-15T05:54:42.419Z,14.11
2023-05-15T05:55:42.586Z,14.18
2023-05-15T05:56:42.757Z,14.22
2023-05-15T05:57:42.926Z,14.08
2023-05-15T05:58:43.090Z,14.00
2023-05-15T05:59:43.331Z,13.71
2023-05-15T06:00:43.456Z,13.54
2023-05-15T06:01:43.660Z,13.63
2023-05-15T06:02:44.003Z,13.78
2023-05-15T06:03:44.107Z,14.11
2023-05-15T06:04:44.202Z,14.35
2023-05-15T06:05:44.399Z,14.48
2023-05-15T06:06:44.576Z,14.36
2023-05-15T06:07:44.742Z,14.41
2023-05-15T06:08:44.970Z,14.51
2023-05-15T06:09:45.159Z,14.45
2023-05-15T06:10:45.322Z,14.62
2023-05-15T06:11:45.544Z,14.73
2023-05-15T06:12:45.662Z,14.78
2023-05-15T06:13:45.852Z,14.65
2023-05-15T06:14:46.071Z,14.47
2023-05-15T06:15:46.220Z,14.35
2023-05-15T06:16:46.485Z,14.30
2023-05-15T06:17:46.636Z,14.28
2023-05-15T06:18:46.830Z,14.26
2023-05-15T06:19:46.997Z,14.36
2023-05-15T06:20:47.154Z,14.50
2023-05-15T06:21:47.341Z,14.47
2023-05-15T06:22:47.540Z,14.54
2023-05-15T06:23:47.748Z,14.47
2023-05-15T06:24:47.965Z,14.51
2023-05-15T06:25:48.122Z,14.59
2023-05-15T06:26:49.639Z,14.44
2023-05-15T06:27:48.469Z,14.35
2023-05-15T06:28:48.716Z,14.30
2023-05-15T06:29:48.882Z,14.32
2023-05-15T06:30:49.084Z,14.37
2023-05-15T06:31:49.203Z,14.44
2023-05-15T06:32:49.444Z,14.36
2023-05-15T06:33:49.589Z,14.37
2023-05-15T06:34:49.794Z,14.43
2023-05-15T06:35:49.973Z,14.37
2023-05-15T06:36:50.164Z,14.51
2023-05-15T06:37:50.343Z,14.58
2023-05-15T06:38:50.511Z,14.60
2023-05-15T06:39:50.768Z,14.63
2023-05-15T06:40:50.891Z,14.72
2023-05-15T06:41:51.064Z,14.77
2023-05-15T06:42:51.221Z,14.73
2023-05-15T06:43:51.410Z,14.81
2023-05-15T06:44:51.634Z,14.84
2023-05-15T06:45:51.803Z,14.94
2023-05-15T06:46:52.067Z,15.07
2023-05-15T06:47:52.180Z,15.09
2023-05-15T06:48:52.368Z,15.11
2023-05-15T06:49:52.556Z,15.21
2023-05-15T06:50:52.716Z,15.27
2023-05-15T06:51:52.895Z,15.33
2023-05-15T06:52:53.054Z,15.29
2023-05-15T06:53:53.223Z,15.29
2023-05-15T06:54:53.444Z,15.36
2023-05-15T06:55:53.624Z,15.40
2023-05-15T06:56:53.769Z,15.39
2023-05-15T06:57:53.982Z,15.36
2023-05-15T06:58:54.158Z,15.49
2023-05-15T06:59:54.370Z,15.58
2023-05-15T07:00:56.158Z,15.55
2023-05-15T07:01:54.834Z,15.37
2023-05-15T07:02:54.923Z,15.28
2023-05-15T07:03:55.069Z,15.47
2023-05-15T07:04:55.374Z,15.65
2023-05-15T07:05:55.439Z,15.83
2023-05-15T07:06:55.637Z,15.94
2023-05-15T07:07:55.841Z,15.95
2023-05-15T07:08:56.013Z,15.94
2023-05-15T07:09:56.203Z,15.97
2023-05-15T07:10:56.375Z,16.02
2023-05-15T07:11:56.584Z,16.08
2023-05-15T07:12:56.750Z,16.12
2023-05-15T07:13:56.945Z,16.29
2023-05-15T07:14:57.130Z,16.24
2023-05-15T07:15:57.275Z,16.31
2023-05-15T07:16:57.504Z,16.42
2023-05-15T07:17:57.825Z,16.53
2023-05-15T07:18:57.925Z,16.65
2023-05-15T07:19:58.041Z,16.71
2023-05-15T07:20:58.208Z,16.68
2023-05-15T07:21:58.360Z,16.74
2023-05-15T07:22:58.649Z,16.57
2023-05-15T07:23:58.894Z,16.38
2023-05-15T07:24:58.925Z,16.49
2023-05-15T07:25:59.092Z,16.56
2023-05-15T07:26:59.480Z,16.71
2023-05-15T07:27:59.497Z,16.86
2023-05-15T07:28:59.658Z,17.01
2023-05-15T07:29:59.856Z,17.06
2023-05-15T07:31:02.760Z,17.15
2023-05-15T07:32:00.317Z,17.15
2023-05-15T07:33:00.515Z,17.19
2023-05-15T07:34:00.620Z,17.05
2023-05-15T07:35:00.804Z,16.87
2023-05-15T07:36:01.065Z,17.11
2023-05-15T07:37:01.145Z,17.14
2023-05-15T07:38:01.371Z,17.19
2023-05-15T07:39:01.530Z,17.19
2023-05-15T07:40:01.785Z,17.27
2023-05-15T07:41:01.924Z,17.29
2023-05-15T07:42:02.126Z,17.34
2023-05-15T07:43:02.338Z,17.33
2023-05-15T07:44:02.509Z,17.42
2023-05-15T07:45:02.745Z,17.52
2023-05-15T07:46:02.996Z,17.51
2023-05-15T07:47:03.059Z,17.46
2023-05-15T07:48:03.243Z,17.42
2023-05-15T07:49:03.531Z,17.48
2023-05-15T07:50:03.610Z,17.51
2023-05-15T07:51:03.756Z,17.52
2023-05-15T07:52:03.972Z,17.49
2023-05-15T07:53:04.185Z,17.34
2023-05-15T07:54:04.446Z,17.45
2023-05-15T07:55:04.524Z,17.48
2023-05-15T07:56:04.665Z,17.65
2023-05-15T07:57:04.865Z,17.80
2023-05-15T07:58:05.050Z,17.89
2023-05-15T07:59:05.249Z,17.94
2023-05-15T08:00:05.409Z,18.01
2023-05-15T08:01:05.553Z,17.86
2023-05-15T08:02:05.775Z,17.89
2023-05-15T08:03:06.071Z,17.98
2023-05-15T08:04:06.210Z,17.98
2023-05-15T08:05:06.335Z,18.11
2023-05-15T08:06:06.515Z,18.18
2023-05-15T08:07:06.670Z,18.18
2023-05-15T08:08:06.902Z,18.23
2023-05-15T08:09:07.059Z,18.13
2023-05-15T08:10:07.239Z,18.23
2023-05-15T08:11:07.361Z,18.25
2023-05-15T08:12:07.556Z,18.35
2023-05-15T08:13:07.752Z,18.35
2023-05-15T08:14:07.965Z,18.50
2023-05-15T08:15:08.157Z,18.63
2023-05-15T08:16:08.481Z,18.71
2023-05-15T08:17:08.514Z,18.71
2023-05-15T08:18:08.853Z,18.58
2023-05-15T08:19:08.924Z,18.71
2023-05-15T08:20:09.118Z,18.73
2023-05-15T08:21:09.248Z,18.71
2023-05-15T08:22:09.444Z,18.71
2023-05-15T08:23:09.621Z,18.74
2023-05-15T08:24:09.829Z,18.95
2023-05-15T08:25:10.056Z,18.93
2023-05-15T08:26:10.224Z,18.84
2023-05-15T08:27:10.390Z,18.74
2023-05-15T08:28:10.587Z,18.93
2023-05-15T08:29:10.766Z,19.00
2023-05-15T08:30:10.938Z,19.16
2023-05-15T08:31:11.186Z,19.31
2023-05-15T08:32:11.333Z,19.44
2023-05-15T08:33:17.538Z,19.48
2023-05-15T08:34:11.721Z,19.45
2023-05-15T08:35:11.957Z,19.39
2023-05-15T08:36:12.128Z,19.48
2023-05-15T08:37:12.272Z,19.48
2023-05-15T08:38:12.478Z,19.44
2023-05-15T08:39:12.644Z,19.37
2023-05-15T08:40:12.846Z,19.51
2023-05-15T08:41:13.022Z,19.52
2023-05-15T08:42:13.279Z,19.58
2023-05-15T08:43:13.387Z,19.30
2023-05-15T08:44:13.643Z,19.49
2023-05-15T08:45:13.782Z,19.58
2023-05-15T08:46:13.940Z,19.74
2023-05-15T08:47:14.108Z,19.67
2023-05-15T08:48:14.490Z,19.77
2023-05-15T08:49:14.605Z,19.86
2023-05-15T08:50:14.700Z,19.94
2023-05-15T08:51:14.852Z,19.91
2023-05-15T08:52:15.020Z,19.85
2023-05-15T08:53:15.210Z,19.95
2023-05-15T08:54:15.410Z,20.07
2023-05-15T08:55:15.637Z,20.06
2023-05-15T08:56:15.773Z,20.22
2023-05-15T08:57:15.965Z,20.14
2023-05-15T08:58:16.171Z,20.13
2023-05-15T08:59:16.325Z,20.34
2023-05-15T09:00:16.536Z,20.60
2023-05-15T09:01:16.765Z,20.62
2023-05-15T09:02:16.871Z,20.59
2023-05-15T09:03:17.126Z,20.55
2023-05-15T09:04:17.234Z,20.59
2023-05-15T09:05:17.435Z,20.69
2023-05-15T09:06:17.695Z,20.41
2023-05-15T09:07:17.856Z,20.43
2023-05-15T09:08:17.983Z,20.21
2023-05-15T09:09:18.201Z,20.32
2023-05-15T09:10:18.417Z,20.47
2023-05-15T09:11:18.572Z,20.55
2023-05-15T09:12:18.743Z,20.63
2023-05-15T09:13:18.934Z,20.56
2023-05-15T09:14:19.621Z,20.48
2023-05-15T09:15:19.310Z,20.63
2023-05-15T09:16:19.516Z,20.59
2023-05-15T09:17:19.705Z,20.66
2023-05-15T09:18:19.902Z,20.65
2023-05-15T09:19:20.270Z,20.47
2023-05-15T09:20:20.262Z,20.29
2023-05-15T09:21:20.463Z,20.40
2023-05-15T09:22:20.623Z,20.50
2023-05-15T09:23:20.809Z,20.58
2023-05-15T09:24:20.989Z,20.70
2023-05-15T09:25:21.261Z,20.63
2023-05-15T09:26:21.383Z,20.48
2023-05-15T09:27:21.581Z,20.62
2023-05-15T09:28:21.860Z,20.75
2023-05-15T09:29:22.071Z,20.51
2023-05-15T09:30:22.249Z,20.40
2023-05-15T09:31:22.431Z,20.56
2023-05-15T09:32:22.825Z,20.62
2023-05-15T09:33:22.872Z,20.78
2023-05-15T09:34:23.073Z,20.97
2023-05-15T09:35:23.788Z,20.95
2023-05-15T09:36:23.532Z,20.93
2023-05-15T09:37:23.726Z,20.97
2023-05-15T09:38:23.906Z,20.97
2023-05-15T09:39:24.098Z,20.93
2023-05-15T09:40:24.347Z,20.78
2023-05-15T09:41:24.538Z,20.85
2023-05-15T09:42:24.726Z,20.70
2023-05-15T09:43:24.911Z,20.60
2023-05-15T09:44:25.113Z,20.74
2023-05-15T09:45:25.545Z,20.75
2023-05-15T09:46:25.670Z,20.77
2023-05-15T09:47:25.827Z,21.17
2023-05-15T09:48:25.954Z,21.29
2023-05-15T09:49:26.196Z,21.32
2023-05-15T09:50:26.325Z,21.09
2023-05-15T09:51:26.565Z,21.12
2023-05-15T09:52:26.690Z,21.07
2023-05-15T09:53:26.900Z,21.05
2023-05-15T09:54:27.129Z,21.05
2023-05-15T09:55:27.417Z,21.12
2023-05-15T09:56:27.572Z,21.14
2023-05-15T09:57:27.780Z,21.32
2023-05-15T09:58:27.912Z,21.11
2023-05-15T09:59:28.129Z,20.74
2023-05-15T10:00:29.120Z,20.70
2023-05-15T10:01:28.494Z,21.14
2023-05-15T10:02:28.706Z,21.09
2023-05-15T10:03:28.926Z,21.30
2023-05-15T10:04:29.106Z,21.30
2023-05-15T10:05:42.583Z,21.32
2023-05-15T10:06:29.506Z,21.06
2023-05-15T10:07:29.746Z,20.87
2023-05-15T10:08:29.903Z,21.15
2023-05-15T10:09:30.139Z,21.12
2023-05-15T10:10:30.301Z,21.20
2023-05-15T10:11:30.451Z,21.30
2023-05-15T10:12:30.704Z,21.58
2023-05-15T10:13:30.844Z,21.46
2023-05-15T10:14:31.103Z,21.14
2023-05-15T10:15:31.280Z,21.21
2023-05-15T10:16:31.521Z,21.18
2023-05-15T10:17:31.772Z,21.05
2023-05-15T10:18:31.907Z,20.72
2023-05-15T10:19:32.104Z,20.92
2023-05-15T10:20:32.294Z,21.02
2023-05-15T10:21:32.529Z,21.18
2023-05-15T10:22:32.714Z,21.24
2023-05-15T10:23:32.905Z,21.43
2023-05-15T10:24:33.186Z,21.35
2023-05-15T10:25:33.346Z,21.32
2023-05-15T10:26:33.518Z,21.27
2023-05-15T10:27:33.711Z,21.40
2023-05-15T10:28:33.943Z,21.21
2023-05-15T10:29:34.129Z,21.24
2023-05-15T10:30:34.342Z,21.42
2023-05-15T10:31:34.509Z,21.72
2023-05-15T10:32:34.751Z,21.43
2023-05-15T10:33:34.939Z,21.64
2023-05-15T10:34:35.101Z,21.73
2023-05-15T10:35:35.488Z,21.76
2023-05-15T10:36:35.540Z,21.72
2023-05-15T10:37:35.757Z,21.66
2023-05-15T10:38:35.888Z,21.67
2023-05-15T10:39:36.104Z,21.66
2023-05-15T10:40:36.277Z,21.40
2023-05-15T10:41:36.449Z,21.75
2023-05-15T10:42:36.665Z,21.66
2023-05-15T10:43:36.838Z,21.73
2023-05-15T10:44:37.073Z,21.83
2023-05-15T10:45:37.271Z,21.89
2023-05-15T10:46:37.489Z,21.79
2023-05-15T10:47:37.682Z,21.98
2023-05-15T10:48:37.856Z,21.83
2023-05-15T10:49:38.036Z,21.89
2023-05-15T10:50:38.223Z,21.85
2023-05-15T10:51:38.404Z,21.79
2023-05-15T10:52:38.621Z,21.85
2023-05-15T10:53:38.893Z,21.85
2023-05-15T10:54:39.016Z,21.73
2023-05-15T10:55:39.235Z,21.58
2023-05-15T10:56:39.420Z,21.70
2023-05-15T10:57:39.664Z,21.75
2023-05-15T10:58:39.951Z,21.64
2023-05-15T10:59:40.065Z,21.72
2023-05-15T11:00:40.349Z,21.95
2023-05-15T11:01:40.689Z,21.77
2023-05-15T11:02:40.745Z,21.52
2023-05-15T11:03:49.478Z,21.57
2023-05-15T11:04:41.215Z,21.89
2023-05-15T11:05:41.366Z,22.26
2023-05-15T11:06:41.534Z,22.28
2023-05-15T11:07:41.753Z,22.00
2023-05-15T11:08:41.965Z,21.75
2023-05-15T11:09:42.176Z,21.82
2023-05-15T11:10:42.397Z,21.40
2023-05-15T11:11:42.564Z,21.42
2023-05-15T11:12:42.796Z,21.58
2023-05-15T11:13:42.953Z,21.93
2023-05-15T11:14:43.186Z,21.91
2023-05-15T11:15:43.414Z,21.76
2023-05-15T11:16:43.654Z,21.89
2023-05-15T11:17:43.770Z,21.88
2023-05-15T11:18:44.144Z,21.95
2023-05-15T11:19:44.261Z,21.91
2023-05-15T11:20:44.361Z,22.18
2023-05-15T11:21:44.583Z,22.32
2023-05-15T11:22:44.794Z,22.17
2023-05-15T11:23:45.002Z,22.17
2023-05-15T11:24:45.176Z,22.18
2023-05-15T11:25:45.398Z,22.17
2023-05-15T11:26:45.642Z,22.22
2023-05-15T11:27:45.827Z,22.26
2023-05-15T11:28:46.062Z,22.18
2023-05-15T11:29:46.176Z,22.33
2023-05-15T11:30:46.433Z,22.50
2023-05-15T11:31:46.571Z,22.17
2023-05-15T11:32:46.787Z,22.26
2023-05-15T11:33:46.973Z,22.08
2023-05-15T11:34:47.233Z,22.02
2023-05-15T11:35:47.395Z,22.45
2023-05-15T11:36:47.685Z,22.30
2023-05-15T11:37:47.808Z,22.60
2023-05-15T11:38:48.026Z,22.41
2023-05-15T11:39:48.206Z,22.45
2023-05-15T11:40:48.436Z,22.51
2023-05-15T11:41:48.604Z,22.32
2023-05-15T11:42:48.782Z,22.32
2023-05-15T11:43:49.005Z,22.28
2023-05-15T11:44:49.247Z,21.77
2023-05-15T11:45:49.409Z,21.85
2023-05-15T11:46:49.646Z,22.11
2023-05-15T11:47:49.908Z,22.32
2023-05-15T11:48:50.050Z,22.33
2023-05-15T11:49:50.266Z,22.54
2023-05-15T11:50:50.445Z,22.30
2023-05-15T11:51:50.647Z,22.22
2023-05-15T11:52:50.831Z,22.50
2023-05-15T11:53:51.057Z,22.87
2023-05-15T11:54:51.227Z,22.75
2023-05-15T11:55:51.475Z,23.06
2023-05-15T11:56:51.715Z,22.98
2023-05-15T11:57:51.976Z,22.63
2023-05-15T11:58:52.204Z,22.84
2023-05-15T11:59:52.284Z,22.83
2023-05-15T12:00:52.559Z,22.70
2023-05-15T12:01:52.730Z,22.28
2023-05-15T12:02:52.986Z,22.25
2023-05-15T12:03:53.296Z,22.44
2023-05-15T12:04:53.326Z,22.23
2023-05-15T12:05:59.464Z,21.96
2023-05-15T12:06:54.332Z,21.99
2023-05-15T12:07:53.976Z,22.29
2023-05-15T12:08:54.199Z,22.29
2023-05-15T12:09:54.464Z,22.30
2023-05-15T12:10:54.577Z,22.33
2023-05-15T12:11:54.776Z,22.18
2023-05-15T12:12:55.001Z,22.32
2023-05-15T12:13:55.350Z,22.32
2023-05-15T12:14:55.333Z,22.48
2023-05-15T12:15:55.637Z,22.53
2023-05-15T12:16:55.920Z,22.65
2023-05-15T12:17:56.006Z,22.72
2023-05-15T12:18:56.261Z,22.90
2023-05-15T12:19:56.406Z,23.06
2023-05-15T12:20:56.614Z,22.85
2023-05-15T12:21:56.790Z,22.73
2023-05-15T12:22:56.984Z,22.72
2023-05-15T12:24:57.386Z,22.78
2023-05-15T12:25:57.584Z,22.66
2023-05-15T12:26:57.845Z,22.84
2023-05-15T12:27:57.989Z,22.93
2023-05-15T12:28:58.214Z,23.31
2023-05-15T12:29:58.394Z,23.00
2023-05-15T12:30:58.695Z,22.98
2023-05-15T12:31:58.787Z,22.78
2023-05-15T12:32:59.003Z,22.88
2023-05-15T12:33:59.161Z,22.13
2023-05-15T12:34:59.417Z,22.35
2023-05-15T12:36:01.648Z,22.23
2023-05-15T12:36:59.790Z,22.53
2023-05-15T12:38:00.168Z,22.73
2023-05-15T12:39:00.198Z,22.66
2023-05-15T12:40:00.449Z,22.73
2023-05-15T12:41:00.630Z,22.83
2023-05-15T12:42:00.824Z,21.92
2023-05-15T12:43:01.043Z,21.89
2023-05-15T12:44:01.211Z,21.83
2023-05-15T12:45:01.508Z,21.76
2023-05-15T12:46:01.655Z,21.66
2023-05-15T12:47:01.931Z,21.46
2023-05-15T12:48:02.119Z,21.45
2023-05-15T12:49:02.187Z,21.55
2023-05-15T12:50:02.337Z,21.62
2023-05-15T12:51:02.564Z,21.64
2023-05-15T12:52:02.738Z,21.73
2023-05-15T12:53:03.052Z,21.91
2023-05-15T12:54:03.186Z,22.13
2023-05-15T12:55:03.376Z,22.48
2023-05-15T12:56:03.638Z,22.39
2023-05-15T12:57:03.847Z,22.18
2023-05-15T12:58:03.994Z,22.14
2023-05-15T12:59:04.196Z,22.41
2023-05-15T13:00:04.412Z,21.99
2023-05-15T13:01:04.685Z,21.62
2023-05-15T13:02:04.780Z,21.50
2023-05-15T13:03:05.261Z,21.52